Time;durP1;ratioP1;P1;durP2;ratioP2;P2;SDS_P1;SDS_P2;PMS_P1;PMS_P2;Temp;Humidity;BMP_temperature;BMP_pressure;BME280_temperature;BME280_humidity;BME280_pressure;Samples;Min_cycle;Max_cycle;Signal;HPM_P1;HPM_P2
2022/01/08 00:02:09;;;;;;;15.20;13.63;;;0.70;99.90;;;;;;5111223;28;20031;-68
2022/01/08 00:04:34;;;;;;;19.00;13.13;;;;;;;;;;5110423;28;20474;-68
2022/01/08 00:07:01;;;;;;;16.83;14.60;;;;;;;;;;5110951;28;20039;-69
2022/01/08 00:09:26;;;;;;;17.10;13.20;;;0.60;99.90;;;;;;5110806;28;20028;-68
2022/01/08 00:11:52;;;;;;;13.70;11.03;;;;;;;;;;5110678;28;20031;-68
2022/01/08 00:14:21;;;;;;;18.83;13.50;;;0.60;99.90;;;;;;5111048;28;20027;-68
2022/01/08 00:16:47;;;;;;;22.20;13.93;;;;;;;;;;5110688;28;20053;-69
2022/01/08 00:19:13;;;;;;;18.23;13.70;;;;;;;;;;5110665;28;20036;-68
2022/01/08 00:21:39;;;;;;;17.37;15.17;;;;;;;;;;5110172;28;20085;-68
2022/01/08 00:24:04;;;;;;;16.13;13.73;;;0.50;99.90;;;;;;5111022;28;20152;-68
2022/01/08 00:26:30;;;;;;;16.93;13.57;;;;;;;;;;5110310;28;20031;-68
2022/01/08 00:28:56;;;;;;;15.50;13.13;;;0.50;99.90;;;;;;5123416;27;20030;-68
2022/01/08 00:31:22;;;;;;;19.97;13.93;;;;;;;;;;5131274;27;20083;-69
2022/01/08 00:33:47;;;;;;;17.80;13.73;;;0.40;99.90;;;;;;5130909;27;20038;-68
2022/01/08 00:36:13;;;;;;;21.53;15.43;;;0.30;99.90;;;;;;5130927;27;20023;-68
2022/01/08 00:38:39;;;;;;;24.03;15.90;;;0.20;99.90;;;;;;5128990;27;20054;-69
2022/01/08 00:41:04;;;;;;;17.93;13.13;;;0.20;99.90;;;;;;5131102;27;20092;-68
2022/01/08 00:43:30;;;;;;;18.07;13.67;;;0.10;99.90;;;;;;5113524;27;20027;-68
2022/01/08 00:45:55;;;;;;;22.20;17.77;;;0.30;99.90;;;;;;5110370;28;20034;-68
2022/01/08 00:48:22;;;;;;;26.13;16.90;;;;;;;;;;5110531;28;20027;-68
2022/01/08 00:50:47;;;;;;;18.27;15.33;;;0.00;99.90;;;;;;5109649;28;20050;-68
2022/01/08 00:53:13;;;;;;;20.97;16.57;;;0.30;99.90;;;;;;5110365;28;20516;-69
2022/01/08 00:55:38;;;;;;;25.73;17.43;;;0.10;99.90;;;;;;5109810;28;20024;-69
2022/01/08 00:58:04;;;;;;;24.03;18.20;;;0.40;99.90;;;;;;5109916;28;20138;-69
2022/01/08 01:00:30;;;;;;;18.70;16.30;;;;;;;;;;5109490;28;20049;-69
2022/01/08 01:02:55;;;;;;;25.50;18.07;;;0.20;99.90;;;;;;5109814;28;20690;-68
2022/01/08 01:05:21;;;;;;;22.13;17.93;;;0.40;99.90;;;;;;5116628;27;20095;-68
2022/01/08 01:07:47;;;;;;;22.63;16.07;;;0.50;99.90;;;;;;5130137;27;20052;-68
2022/01/08 01:10:13;;;;;;;23.23;15.63;;;;;;;;;;5110432;27;20020;-68
2022/01/08 01:12:39;;;;;;;27.97;18.03;;;0.40;99.90;;;;;;5098627;28;20127;-69
2022/01/08 01:15:07;;;;;;;27.60;19.03;;;0.30;99.90;;;;;;5109728;28;20597;-69
2022/01/08 01:17:33;;;;;;;25.47;18.23;;;0.30;99.90;;;;;;5109857;27;20345;-68
2022/01/08 01:19:58;;;;;;;27.90;20.23;;;0.40;99.90;;;;;;5109101;28;20046;-69
2022/01/08 01:22:29;;;;;;;27.03;18.73;;;;;;;;;;5109014;28;20036;-68
2022/01/08 01:25:03;;;;;;;21.57;17.50;;;;;;;;;;5109462;28;20048;-69
2022/01/08 01:30:19;;;;;;;24.08;16.77;;;;;;;;;;5109347;28;20024;-68
2022/01/08 01:41:14;;;;;;;25.45;17.65;;;;;;;;;;5109339;28;20031;-68
2022/01/08 01:49:07;;;;;;;26.33;18.87;;;-0.10;99.90;;;;;;5108866;28;20058;-68
2022/01/08 01:51:33;;;;;;;31.37;19.27;;;0.20;99.90;;;;;;5109630;28;20465;-68
2022/01/08 01:53:58;;;;;;;20.77;17.37;;;0.00;99.90;;;;;;5109068;28;20034;-68
2022/01/08 01:56:24;;;;;;;27.27;17.67;;;0.10;99.90;;;;;;5109252;28;20020;-69
2022/01/08 01:58:50;;;;;;;21.80;16.50;;;;;;;;;;5107594;28;20040;-68
2022/01/08 02:01:16;;;;;;;19.60;15.90;;;0.20;99.90;;;;;;5109082;28;20104;-68
2022/01/08 02:03:42;;;;;;;25.53;18.87;;;0.10;99.90;;;;;;5108774;28;20032;-68
2022/01/08 02:06:08;;;;;;;26.00;20.23;;;0.10;99.90;;;;;;5108764;28;20034;-68
2022/01/08 02:08:35;;;;;;;25.27;17.50;;;0.20;99.90;;;;;;5109328;28;20035;-68
2022/01/08 02:11:01;;;;;;;25.77;19.27;;;;;;;;;;5108614;28;20071;-70
2022/01/08 02:13:28;;;;;;;25.23;20.93;;;0.30;99.90;;;;;;5108821;28;20039;-68
2022/01/08 02:15:55;;;;;;;30.80;20.97;;;0.20;99.90;;;;;;5107587;28;20035;-68
2022/01/08 02:18:23;;;;;;;24.90;19.10;;;0.20;99.90;;;;;;5108580;28;20032;-68
2022/01/08 02:20:49;;;;;;;23.43;18.10;;;0.30;99.90;;;;;;5109305;28;20405;-68
2022/01/08 02:23:14;;;;;;;22.57;17.63;;;0.00;99.90;;;;;;5108641;28;20028;-68
2022/01/08 02:25:40;;;;;;;26.10;18.70;;;;;;;;;;5109223;28;20012;-68
2022/01/08 02:28:06;;;;;;;19.67;14.80;;;-0.10;99.90;;;;;;5108259;28;20027;-68
2022/01/08 02:30:32;;;;;;;24.07;17.50;;;-0.10;99.90;;;;;;5107944;28;20165;-68
2022/01/08 02:32:58;;;;;;;18.53;14.50;;;;;;;;;;5108445;28;20098;-68
2022/01/08 02:35:25;;;;;;;17.07;14.67;;;;;;;;;;5108525;28;20035;-68
2022/01/08 02:37:51;;;;;;;31.80;16.80;;;-0.10;99.90;;;;;;5108530;28;20562;-68
2022/01/08 02:40:19;;;;;;;20.23;16.90;;;0.10;99.90;;;;;;5108522;28;20035;-68
2022/01/08 02:42:53;;;;;;;22.03;16.73;;;0.10;99.90;;;;;;5108308;28;20032;-68
2022/01/08 02:45:21;;;;;;;21.80;16.43;;;-0.10;99.90;;;;;;5108175;28;20427;-68
2022/01/08 02:47:47;;;;;;;22.70;15.40;;;;;;;;;;5108646;28;20072;-68
2022/01/08 02:50:13;;;;;;;23.97;17.37;;;-0.20;99.90;;;;;;5108319;28;20151;-68
2022/01/08 02:52:43;;;;;;;19.13;14.20;;;0.10;99.90;;;;;;5108387;28;20031;-68
2022/01/08 02:55:10;;;;;;;27.23;19.90;;;0.00;99.90;;;;;;5108266;28;20403;-68
2022/01/08 02:57:36;;;;;;;28.87;23.03;;;;;;;;;;5108521;28;20070;-68
2022/01/08 03:00:05;;;;;;;23.60;17.43;;;0.20;99.90;;;;;;5097349;28;20047;-68
2022/01/08 03:02:30;;;;;;;35.27;23.93;;;0.50;99.90;;;;;;5088209;28;20400;-68
2022/01/08 03:04:56;;;;;;;29.10;23.33;;;0.50;99.90;;;;;;5088155;28;20024;-69
2022/01/08 03:07:21;;;;;;;28.67;21.27;;;0.40;99.90;;;;;;5091747;28;20032;-69
2022/01/08 03:09:56;;;;;;;24.00;19.77;;;;;;;;;;5098164;28;20028;-69
2022/01/08 03:12:26;;;;;;;23.17;17.73;;;0.60;99.90;;;;;;5087933;28;20030;-68
2022/01/08 03:14:51;;;;;;;23.47;19.10;;;0.60;99.90;;;;;;5087922;28;20026;-69
2022/01/08 03:17:17;;;;;;;33.33;20.03;;;0.90;99.90;;;;;;5088049;28;20024;-69
2022/01/08 03:19:43;;;;;;;26.77;19.07;;;;;;;;;;5087956;28;20063;-69
2022/01/08 03:22:10;;;;;;;30.73;19.60;;;0.60;99.90;;;;;;5087953;28;20119;-69
2022/01/08 03:24:36;;;;;;;33.63;20.47;;;;;;;;;;5107958;28;20024;-69
2022/01/08 03:27:02;;;;;;;30.50;21.50;;;0.70;99.90;;;;;;5107713;28;20097;-68
2022/01/08 03:29:28;;;;;;;34.27;20.60;;;;;;;;;;5107379;28;20027;-68
2022/01/08 03:31:55;;;;;;;23.13;17.70;;;;;;;;;;5107101;28;20042;-69
2022/01/08 03:34:20;;;;;;;25.87;16.97;;;0.80;99.90;;;;;;5105985;28;20127;-69
2022/01/08 03:36:46;;;;;;;16.63;13.33;;;;;;;;;;5106214;28;20119;-69
2022/01/08 03:39:12;;;;;;;30.77;22.20;;;;;;;;;;5105765;28;20040;-68
2022/01/08 03:41:38;;;;;;;24.07;19.70;;;1.00;99.90;;;;;;5106323;28;20042;-69
2022/01/08 03:44:04;;;;;;;27.90;19.37;;;0.60;99.90;;;;;;5105663;28;20035;-69
2022/01/08 03:46:34;;;;;;;29.17;20.40;;;;;;;;;;5110391;28;20388;-69
2022/01/08 03:49:11;;;;;;;27.90;19.03;;;0.40;99.90;;;;;;5111720;28;20028;-69
2022/01/08 03:51:37;;;;;;;22.57;17.23;;;0.30;99.90;;;;;;5111824;28;20051;-69
2022/01/08 03:54:03;;;;;;;23.87;17.40;;;;;;;;;;5109722;28;20055;-69
2022/01/08 03:56:29;;;;;;;21.70;15.50;;;0.20;99.90;;;;;;5110744;28;20023;-68
2022/01/08 03:58:54;;;;;;;25.67;16.03;;;0.20;99.90;;;;;;5111095;28;20060;-68
2022/01/08 04:01:20;;;;;;;18.80;16.20;;;0.00;99.90;;;;;;5111402;28;20028;-69
2022/01/08 04:03:45;;;;;;;21.43;15.90;;;0.10;99.90;;;;;;5111451;28;20036;-69
2022/01/08 04:06:11;;;;;;;19.80;15.10;;;;;;;;;;5110964;28;20035;-69
2022/01/08 04:08:37;;;;;;;25.37;16.40;;;-0.10;99.90;;;;;;5110970;28;20032;-68
2022/01/08 04:11:02;;;;;;;22.07;15.47;;;-0.20;99.90;;;;;;5111095;28;20024;-69
2022/01/08 04:13:31;;;;;;;18.67;15.20;;;-0.10;99.90;;;;;;5110771;28;20027;-69
2022/01/08 04:16:12;;;;;;;23.77;15.30;;;-0.20;99.90;;;;;;5109815;28;20081;-68
2022/01/08 04:18:37;;;;;;;17.80;14.17;;;-0.40;99.90;;;;;;5111275;28;20027;-69
2022/01/08 04:23:47;;;;;;;13.73;10.63;;;;;;;;;;5096770;28;20062;-68
2022/01/08 04:26:13;;;;;;;19.07;13.57;;;-0.20;99.90;;;;;;5110749;28;20045;-68
2022/01/08 04:28:39;;;;;;;15.10;12.67;;;;;;;;;;5110765;28;20027;-69
2022/01/08 04:31:07;;;;;;;22.17;12.30;;;-0.50;99.90;;;;;;5109232;28;20028;-69
2022/01/08 04:33:33;;;;;;;18.90;15.00;;;-0.30;99.90;;;;;;5110551;28;20042;-69
2022/01/08 04:35:58;;;;;;;21.23;13.73;;;-0.40;99.90;;;;;;5110764;28;20399;-68
2022/01/08 04:38:24;;;;;;;15.33;12.43;;;-0.40;99.90;;;;;;5110278;28;20100;-69
2022/01/08 04:40:50;;;;;;;18.53;12.80;;;;;;;;;;5110951;28;20016;-69
2022/01/08 04:43:16;;;;;;;20.03;12.07;;;;;;;;;;5110060;28;20046;-68
2022/01/08 04:45:42;;;;;;;18.87;11.70;;;;;;;;;;5110351;28;20103;-69
2022/01/08 04:48:08;;;;;;;23.70;12.33;;;-0.40;99.90;;;;;;5108913;28;20028;-69
2022/01/08 04:50:34;;;;;;;22.70;14.77;;;0.00;99.90;;;;;;5110554;28;20496;-68
2022/01/08 04:53:00;;;;;;;18.30;12.87;;;-0.40;99.90;;;;;;5110446;28;20024;-68
2022/01/08 04:55:25;;;;;;;20.10;12.53;;;-0.40;99.90;;;;;;5110182;28;20589;-68
2022/01/08 04:57:51;;;;;;;20.93;13.17;;;-0.40;99.90;;;;;;5109742;28;20060;-68
2022/01/08 05:00:19;;;;;;;22.57;14.33;;;-0.30;99.90;;;;;;5110383;28;20027;-69
2022/01/08 05:02:46;;;;;;;19.47;13.17;;;-0.30;99.90;;;;;;5110293;28;20023;-68
2022/01/08 05:05:12;;;;;;;19.90;12.73;;;;;;;;;;5092586;28;20016;-69
2022/01/08 05:07:38;;;;;;;17.10;11.60;;;-0.50;99.90;;;;;;5090120;28;20028;-68
2022/01/08 05:10:05;;;;;;;18.83;12.13;;;-0.40;99.90;;;;;;5089345;28;20035;-68
2022/01/08 05:12:30;;;;;;;18.73;13.13;;;-0.40;99.90;;;;;;5094315;28;20028;-68
2022/01/08 05:14:56;;;;;;;15.17;11.80;;;-0.50;99.90;;;;;;5090044;28;20473;-68
2022/01/08 05:17:30;;;;;;;17.77;12.73;;;;;;;;;;5092537;27;20286;-69
2022/01/08 05:19:59;;;;;;;18.70;10.95;;;-0.40;99.90;;;;;;5090061;28;20036;-68
2022/01/08 05:22:27;;;;;;;24.07;13.90;;;-0.50;99.90;;;;;;5089649;28;20020;-69
2022/01/08 05:24:54;;;;;;;20.90;13.17;;;-0.60;99.90;;;;;;5089303;28;20024;-69
2022/01/08 05:27:19;;;;;;;22.03;13.30;;;-0.30;99.90;;;;;;5089592;28;20024;-68
2022/01/08 05:29:47;;;;;;;21.07;12.33;;;-0.50;99.90;;;;;;5087953;28;20499;-68
2022/01/08 05:32:18;;;;;;;16.20;11.00;;;;;;;;;;5094483;28;20019;-68
2022/01/08 05:34:46;;;;;;;18.90;12.30;;;-0.60;99.90;;;;;;5091771;28;20465;-69
2022/01/08 05:37:12;;;;;;;19.83;12.13;;;-0.70;99.90;;;;;;5088979;28;20071;-68
2022/01/08 05:39:39;;;;;;;17.07;11.80;;;-0.60;99.90;;;;;;5089027;28;20032;-69
2022/01/08 05:42:05;;;;;;;18.03;11.73;;;;;;;;;;5088965;28;20036;-68
2022/01/08 05:44:31;;;;;;;21.30;14.13;;;-0.50;99.90;;;;;;5089338;28;20020;-68
2022/01/08 05:46:56;;;;;;;23.57;13.63;;;-0.50;99.90;;;;;;5088915;28;20036;-68
2022/01/08 05:49:22;;;;;;;19.57;12.73;;;-0.60;99.90;;;;;;5088841;28;20024;-68
2022/01/08 05:51:47;;;;;;;19.27;13.20;;;-0.40;99.90;;;;;;5089424;28;20431;-68
2022/01/08 05:54:16;;;;;;;23.33;12.93;;;-0.60;99.90;;;;;;5088373;28;20024;-68
2022/01/08 05:56:42;;;;;;;14.07;9.63;;;;;;;;;;5090913;28;20055;-68
2022/01/08 05:59:07;;;;;;;22.30;12.10;;;-0.50;99.90;;;;;;5108812;28;20067;-69
2022/01/08 06:01:34;;;;;;;21.00;12.00;;;-0.60;99.90;;;;;;5109426;28;20024;-68
2022/01/08 06:04:03;;;;;;;21.10;13.23;;;-0.40;99.90;;;;;;5108942;28;20126;-68
2022/01/08 06:06:29;;;;;;;24.50;14.73;;;;;;;;;;5109266;28;20023;-68
2022/01/08 06:08:55;;;;;;;21.63;11.50;;;;;;;;;;5108137;28;20054;-68
2022/01/08 06:11:21;;;;;;;21.00;12.23;;;-0.40;99.90;;;;;;5108893;28;20456;-68
2022/01/08 06:13:47;;;;;;;20.50;12.77;;;;;;;;;;5109278;28;20401;-69
2022/01/08 06:16:12;;;;;;;24.13;14.67;;;-0.50;99.90;;;;;;5108528;28;20034;-68
2022/01/08 06:18:38;;;;;;;28.63;14.87;;;-0.50;99.90;;;;;;5109089;28;20039;-69
2022/01/08 06:21:05;;;;;;;27.37;15.27;;;-0.30;99.90;;;;;;5108628;28;20031;-68
2022/01/08 06:23:31;;;;;;;20.83;14.43;;;-0.20;99.90;;;;;;5107245;28;20051;-68
2022/01/08 06:25:57;;;;;;;23.20;14.73;;;-0.40;99.90;;;;;;5108744;28;20551;-69
2022/01/08 06:28:23;;;;;;;21.30;13.60;;;;;;;;;;5108443;28;20193;-68
2022/01/08 06:30:49;;;;;;;21.63;13.50;;;-0.50;99.90;;;;;;5109235;28;20061;-68
2022/01/08 06:33:15;;;;;;;17.93;12.10;;;-0.40;99.90;;;;;;5108340;28;20033;-69
2022/01/08 06:35:41;;;;;;;17.07;10.90;;;;;;;;;;5109050;28;20020;-68
2022/01/08 06:38:07;;;;;;;18.17;11.97;;;-0.50;99.90;;;;;;5107644;28;20089;-68
2022/01/08 06:40:33;;;;;;;22.57;12.70;;;;;;;;;;5108740;28;20119;-68
2022/01/08 06:42:59;;;;;;;15.70;11.03;;;;;;;;;;5106704;28;20058;-68
2022/01/08 06:45:25;;;;;;;28.53;11.37;;;;;;;;;;5108337;28;20027;-68
2022/01/08 06:47:51;;;;;;;18.27;10.90;;;;;;;;;;5109002;28;20030;-69
2022/01/08 06:50:16;;;;;;;14.20;9.73;;;-0.50;99.90;;;;;;5108202;28;20380;-68
2022/01/08 06:52:42;;;;;;;18.47;9.63;;;-0.70;99.90;;;;;;5108382;28;20041;-69
2022/01/08 06:55:08;;;;;;;14.77;11.10;;;-0.40;99.90;;;;;;5108074;28;20035;-68
2022/01/08 06:57:34;;;;;;;18.37;10.97;;;-0.10;99.90;;;;;;5108558;28;20049;-69
2022/01/08 07:00:03;;;;;;;23.83;11.63;;;-0.60;99.90;;;;;;5108439;28;20426;-69
2022/01/08 07:02:29;;;;;;;25.17;12.10;;;-0.60;99.90;;;;;;5108025;28;20038;-68
2022/01/08 07:04:55;;;;;;;19.87;11.73;;;;;;;;;;5108721;28;20102;-69
2022/01/08 07:07:20;;;;;;;19.07;11.80;;;-0.40;99.90;;;;;;5107587;28;20100;-69
2022/01/08 07:09:46;;;;;;;25.03;13.40;;;-0.60;99.90;;;;;;5108508;28;20028;-69
2022/01/08 07:12:11;;;;;;;21.37;11.60;;;-0.50;99.90;;;;;;5107954;28;20068;-68
2022/01/08 07:14:37;;;;;;;23.00;13.57;;;;;;;;;;5108334;28;20042;-69
2022/01/08 07:17:03;;;;;;;23.33;13.13;;;;;;;;;;5107926;28;20032;-68
2022/01/08 07:19:29;;;;;;;22.43;13.50;;;-0.50;99.90;;;;;;5109006;28;20035;-69
2022/01/08 07:21:55;;;;;;;18.97;13.17;;;;;;;;;;5112038;28;20127;-68
2022/01/08 07:24:20;;;;;;;22.07;12.77;;;-0.40;99.90;;;;;;5111743;28;20031;-68
2022/01/08 07:26:46;;;;;;;27.60;15.00;;;;;;;;;;5111999;28;20031;-69
2022/01/08 07:29:12;;;;;;;28.07;17.20;;;-0.30;99.90;;;;;;5111647;28;20034;-69
2022/01/08 07:31:38;;;;;;;39.97;20.90;;;;;;;;;;5112185;27;20031;-69
2022/01/08 07:34:04;;;;;;;34.43;19.73;;;-0.10;99.90;;;;;;5111688;28;20027;-68
2022/01/08 07:36:30;;;;;;;26.00;17.93;;;;;;;;;;5111530;28;20069;-69
2022/01/08 07:38:55;;;;;;;19.40;13.60;;;-0.20;99.90;;;;;;5111928;28;20131;-69
2022/01/08 07:41:21;;;;;;;34.87;17.43;;;-0.10;99.90;;;;;;5111345;28;20807;-69
2022/01/08 07:43:46;;;;;;;26.97;18.37;;;-0.20;99.90;;;;;;5112137;28;20422;-68
2022/01/08 07:46:12;;;;;;;29.67;17.63;;;-0.10;99.90;;;;;;5111308;28;20418;-68
2022/01/08 07:48:38;;;;;;;30.20;16.47;;;;;;;;;;5111624;28;20510;-69
2022/01/08 07:51:03;;;;;;;27.13;17.37;;;-0.10;99.90;;;;;;5111130;28;20073;-68
2022/01/08 07:53:29;;;;;;;28.40;17.87;;;0.10;99.90;;;;;;5111537;28;20502;-68
2022/01/08 07:55:54;;;;;;;25.70;18.67;;;0.40;99.90;;;;;;5112111;28;20027;-69
2022/01/08 07:58:20;;;;;;;19.07;13.20;;;0.00;99.90;;;;;;5111092;28;20042;-68
2022/01/08 08:00:50;;;;;;;29.90;18.47;;;0.20;99.90;;;;;;5111863;28;20026;-69
2022/01/08 08:03:20;;;;;;;35.13;25.30;;;0.20;99.90;;;;;;5111307;28;20129;-69
2022/01/08 08:05:45;;;;;;;36.67;21.40;;;0.20;99.90;;;;;;5110914;28;20114;-68
2022/01/08 08:08:16;;;;;;;33.00;20.73;;;0.40;99.90;;;;;;5110920;28;20115;-68
2022/01/08 08:10:41;;;;;;;29.63;23.67;;;0.60;99.90;;;;;;5111528;28;20015;-69
2022/01/08 08:13:07;;;;;;;37.93;25.90;;;0.30;99.90;;;;;;5110970;28;20028;-68
2022/01/08 08:15:32;;;;;;;40.07;24.53;;;0.60;99.90;;;;;;5111318;28;20024;-68
2022/01/08 08:17:58;;;;;;;39.73;23.60;;;0.60;99.90;;;;;;5111548;28;20038;-68
2022/01/08 08:20:23;;;;;;;28.13;19.60;;;0.40;99.90;;;;;;5109928;28;20028;-68
2022/01/08 08:22:49;;;;;;;30.57;22.30;;;;;;;;;;5111453;28;20038;-68
2022/01/08 08:25:15;;;;;;;30.93;23.80;;;0.80;99.90;;;;;;5110694;28;20023;-68
2022/01/08 08:27:41;;;;;;;35.73;24.10;;;0.70;99.90;;;;;;5111043;27;20423;-68
2022/01/08 08:30:07;;;;;;;32.27;22.53;;;0.90;99.90;;;;;;5110308;28;20020;-69
2022/01/08 08:32:33;;;;;;;38.93;26.87;;;0.80;99.90;;;;;;5110923;28;20020;-68
2022/01/08 08:34:59;;;;;;;28.13;21.47;;;;;;;;;;5110688;28;20031;-69
2022/01/08 08:37:25;;;;;;;34.23;24.60;;;;;;;;;;5109767;28;20077;-68
2022/01/08 08:39:50;;;;;;;36.03;23.43;;;1.00;99.90;;;;;;5111125;28;20019;-69
2022/01/08 08:42:16;;;;;;;40.43;24.63;;;;;;;;;;5109116;28;20027;-68
2022/01/08 08:44:42;;;;;;;30.73;21.03;;;1.10;99.90;;;;;;5110766;28;20774;-68
2022/01/08 08:47:08;;;;;;;30.63;23.73;;;;;;;;;;5110351;28;20024;-68
2022/01/08 08:49:34;;;;;;;33.20;25.37;;;0.90;99.90;;;;;;5109785;28;20499;-68
2022/01/08 08:52:00;;;;;;;26.83;20.43;;;1.20;99.90;;;;;;5110795;28;20028;-69
2022/01/08 08:54:26;;;;;;;36.83;24.00;;;1.30;99.90;;;;;;5109973;28;20047;-68
2022/01/08 08:56:52;;;;;;;35.17;23.87;;;1.30;99.90;;;;;;5110501;28;20062;-68
2022/01/08 08:59:18;;;;;;;32.03;20.83;;;1.10;99.90;;;;;;5110059;27;20028;-68
2022/01/08 09:01:44;;;;;;;33.33;23.37;;;1.20;99.90;;;;;;5098456;28;20032;-68
2022/01/08 09:04:09;;;;;;;39.57;29.00;;;1.30;99.90;;;;;;5094871;28;20107;-69
2022/01/08 09:06:35;;;;;;;33.20;24.33;;;;;;;;;;5109508;28;20107;-67
2022/01/08 09:09:01;;;;;;;29.90;21.07;;;1.20;99.90;;;;;;5110051;28;20023;-67
2022/01/08 09:11:27;;;;;;;33.13;22.80;;;1.30;99.90;;;;;;5109037;28;20111;-67
2022/01/08 09:13:53;;;;;;;28.20;22.63;;;1.30;99.90;;;;;;5109842;28;20472;-67
2022/01/08 09:16:19;;;;;;;35.80;24.27;;;1.50;99.90;;;;;;5109229;28;20063;-67
2022/01/08 09:18:45;;;;;;;33.77;22.07;;;;;;;;;;5108752;28;20048;-67
2022/01/08 09:21:12;;;;;;;34.00;22.60;;;1.60;99.90;;;;;;5109257;28;20057;-67
2022/01/08 09:23:38;;;;;;;29.40;22.23;;;;;;;;;;5109034;28;20484;-67
2022/01/08 09:26:04;;;;;;;30.57;20.50;;;1.40;99.90;;;;;;5117309;27;20116;-67
2022/01/08 09:28:30;;;;;;;24.83;17.33;;;2.00;99.90;;;;;;5120817;27;20032;-67
2022/01/08 09:30:57;;;;;;;31.47;20.23;;;1.70;99.90;;;;;;5130256;27;20452;-67
2022/01/08 09:33:23;;;;;;;33.23;21.73;;;;;;;;;;5129005;27;20023;-67
2022/01/08 09:35:49;;;;;;;26.80;17.97;;;1.60;99.90;;;;;;5130332;27;20027;-67
2022/01/08 09:38:15;;;;;;;29.93;19.37;;;1.80;99.90;;;;;;5129676;27;20055;-67
2022/01/08 09:40:41;;;;;;;27.70;17.87;;;1.80;99.90;;;;;;5109904;27;20050;-67
2022/01/08 09:43:07;;;;;;;35.27;19.33;;;;;;;;;;5113902;27;20066;-68
2022/01/08 09:45:33;;;;;;;29.90;19.83;;;2.20;99.90;;;;;;5110922;27;20076;-67
2022/01/08 09:47:59;;;;;;;30.73;19.30;;;1.90;99.90;;;;;;5118075;27;20031;-67
2022/01/08 09:50:24;;;;;;;31.47;18.90;;;1.90;99.90;;;;;;5127054;27;20023;-67
2022/01/08 09:52:57;;;;;;;28.67;18.00;;;2.00;99.90;;;;;;5114161;27;20028;-67
2022/01/08 09:55:25;;;;;;;29.87;19.43;;;1.90;99.90;;;;;;5108730;28;20058;-68
2022/01/08 09:57:51;;;;;;;28.97;18.30;;;2.00;99.90;;;;;;5109358;28;20061;-67
2022/01/08 10:00:17;;;;;;;34.73;18.83;;;2.00;99.90;;;;;;5108537;28;20032;-67
2022/01/08 10:02:44;;;;;;;23.63;17.77;;;2.50;99.90;;;;;;5108643;28;20059;-67
2022/01/08 10:05:12;;;;;;;33.23;18.13;;;1.90;99.90;;;;;;5109283;28;20035;-67
2022/01/08 10:07:40;;;;;;;33.37;19.47;;;2.10;99.90;;;;;;5108596;28;20507;-67
2022/01/08 10:10:10;;;;;;;24.87;15.87;;;2.30;99.90;;;;;;5116110;27;20094;-68
2022/01/08 10:12:51;;;;;;;23.93;16.70;;;2.40;99.90;;;;;;5118495;27;20019;-68
2022/01/08 10:18:32;;;;;;;26.60;18.10;;;2.20;99.90;;;;;;5088356;28;20388;-68
2022/01/08 10:20:58;;;;;;;30.37;15.63;;;2.70;99.90;;;;;;5088622;28;20412;-68
2022/01/08 10:23:29;;;;;;;27.63;16.83;;;2.20;99.90;;;;;;5097992;28;20020;-67
2022/01/08 10:26:10;;;;;;;29.50;19.33;;;2.40;99.90;;;;;;5108886;28;20019;-68
2022/01/08 10:28:37;;;;;;;34.13;19.63;;;2.30;99.90;;;;;;5108209;28;20028;-68
2022/01/08 10:31:20;;;;;;;30.63;19.57;;;2.40;99.90;;;;;;5108221;28;20031;-68
2022/01/08 10:33:49;;;;;;;30.60;18.77;;;2.90;99.90;;;;;;5107828;28;20020;-67
2022/01/08 10:36:21;;;;;;;39.00;21.83;;;2.50;99.90;;;;;;5106860;28;20503;-67
2022/01/08 10:38:51;;;;;;;30.43;18.87;;;2.80;99.90;;;;;;5113196;27;20407;-68
2022/01/08 10:41:17;;;;;;;34.27;21.23;;;2.80;99.90;;;;;;5108564;28;20039;-68
2022/01/08 10:43:44;;;;;;;31.63;20.07;;;2.90;99.90;;;;;;5107749;28;20337;-68
2022/01/08 10:46:16;;;;;;;31.03;19.03;;;2.80;99.90;;;;;;5108457;28;20042;-67
2022/01/08 10:48:44;;;;;;;31.30;19.23;;;3.00;99.90;;;;;;5107919;28;20754;-67
2022/01/08 10:51:10;;;;;;;34.90;22.87;;;;;;;;;;5108552;28;20115;-68
2022/01/08 10:53:59;;;;;;;29.57;20.43;;;2.90;99.90;;;;;;5108771;28;20098;-68
2022/01/08 10:56:25;;;;;;;33.97;21.97;;;;;;;;;;5111842;28;20027;-68
2022/01/08 10:58:53;;;;;;;37.53;23.30;;;3.10;99.90;;;;;;5111947;28;20055;-68
2022/01/08 11:01:39;;;;;;;34.50;20.87;;;3.30;99.90;;;;;;5094851;28;20167;-68
2022/01/08 11:04:08;;;;;;;36.93;20.13;;;3.60;99.90;;;;;;5105916;28;20035;-68
2022/01/08 11:06:48;;;;;;;38.37;20.83;;;3.30;99.90;;;;;;5111160;28;20031;-68
2022/01/08 11:09:14;;;;;;;32.80;19.43;;;;;;;;;;5111511;28;20531;-69
2022/01/08 11:11:41;;;;;;;35.50;20.73;;;3.60;99.90;;;;;;5111397;28;20028;-68
2022/01/08 11:14:08;;;;;;;36.23;23.20;;;;;;;;;;5096671;28;20024;-68
2022/01/08 11:16:34;;;;;;;35.57;22.43;;;3.30;99.90;;;;;;5091644;28;20091;-68
2022/01/08 11:19:03;;;;;;;41.80;24.00;;;3.50;99.90;;;;;;5092036;28;20028;-69
2022/01/08 11:21:30;;;;;;;31.90;22.63;;;3.60;99.90;;;;;;5091200;28;20028;-68
2022/01/08 11:23:59;;;;;;;39.87;22.97;;;3.50;99.90;;;;;;5098456;28;20027;-68
2022/01/08 11:26:26;;;;;;;35.53;22.50;;;3.50;99.90;;;;;;5110978;28;20378;-68
2022/01/08 11:28:55;;;;;;;41.67;23.57;;;3.50;99.90;;;;;;5111727;28;20023;-68
2022/01/08 11:31:22;;;;;;;30.87;21.20;;;3.60;99.90;;;;;;5111718;28;20024;-68
2022/01/08 11:33:54;;;;;;;31.83;20.33;;;3.70;99.90;;;;;;5112259;28;20038;-68
2022/01/08 11:36:22;;;;;;;34.80;19.97;;;3.70;99.90;;;;;;5111514;28;20514;-68
2022/01/08 11:38:48;;;;;;;31.47;19.07;;;4.10;99.90;;;;;;5111899;28;20059;-68
2022/01/08 11:41:15;;;;;;;31.27;20.20;;;4.00;99.90;;;;;;5111851;28;20028;-68
2022/01/08 11:43:42;;;;;;;31.67;17.43;;;4.00;99.90;;;;;;5110455;28;20059;-68
2022/01/08 11:46:12;;;;;;;35.03;19.30;;;4.20;99.90;;;;;;5111664;28;20089;-68
2022/01/08 11:48:49;;;;;;;35.57;19.33;;;4.00;99.90;;;;;;5111165;28;20123;-68
2022/01/08 11:51:23;;;;;;;27.97;19.30;;;4.20;99.90;;;;;;5111507;28;20042;-68
2022/01/08 11:53:54;;;;;;;31.08;19.55;;;4.00;99.90;;;;;;5111912;28;20030;-68
2022/01/08 11:56:25;;;;;;;34.13;19.30;;;4.20;99.90;;;;;;5113397;27;20379;-68
2022/01/08 11:59:14;;;;;;;30.70;20.13;;;4.10;99.90;;;;;;5111540;28;20108;-68
2022/01/08 12:01:43;;;;;;;30.30;17.07;;;4.20;99.90;;;;;;5111149;28;20058;-68
2022/01/08 12:04:26;;;;;;;30.63;18.00;;;4.10;99.90;;;;;;5111570;28;20040;-68
2022/01/08 12:06:52;;;;;;;33.87;18.67;;;;;;;;;;5109380;28;20433;-68
2022/01/08 12:09:22;;;;;;;30.37;17.53;;;4.10;99.90;;;;;;5111054;28;20053;-69
2022/01/08 12:12:04;;;;;;;33.13;17.93;;;4.10;99.90;;;;;;5110833;28;20543;-68
2022/01/08 12:14:44;;;;;;;28.17;16.80;;;4.30;99.90;;;;;;5110179;28;20456;-68
2022/01/08 12:17:14;;;;;;;26.40;16.13;;;4.20;99.90;;;;;;5111038;28;20031;-68
2022/01/08 12:19:50;;;;;;;28.83;16.57;;;4.10;99.90;;;;;;5110648;28;20030;-68
2022/01/08 12:22:16;;;;;;;29.77;16.40;;;;;;;;;;5110733;28;20081;-68
2022/01/08 12:24:49;;;;;;;27.67;14.87;;;4.40;99.90;;;;;;5110530;28;20444;-69
2022/01/08 12:27:22;;;;;;;28.77;14.88;;;4.10;99.90;;;;;;5110421;28;20034;-68
2022/01/08 12:29:49;;;;;;;28.43;16.57;;;4.20;99.90;;;;;;5109683;28;20467;-69
2022/01/08 12:32:36;;;;;;;24.10;14.90;;;4.20;99.90;;;;;;5110339;28;20034;-68
2022/01/08 12:35:02;;;;;;;24.90;13.87;;;;;;;;;;5122232;27;20028;-68
2022/01/08 12:37:39;;;;;;;22.47;12.83;;;4.30;99.90;;;;;;5120248;27;20054;-68
2022/01/08 12:40:07;;;;;;;22.77;11.93;;;4.20;99.90;;;;;;5121186;27;20054;-69
2022/01/08 12:42:35;;;;;;;23.80;13.43;;;4.00;99.90;;;;;;5119912;27;20448;-69
2022/01/08 12:45:12;;;;;;;20.17;12.60;;;4.20;99.90;;;;;;5117875;27;20023;-69
2022/01/08 12:48:05;;;;;;;22.20;12.57;;;4.20;99.90;;;;;;5116810;27;20031;-69
2022/01/08 12:50:34;;;;;;;19.37;12.17;;;4.10;99.90;;;;;;5116746;27;20065;-69
2022/01/08 12:53:08;;;;;;;23.10;13.97;;;4.40;99.90;;;;;;5119582;27;20015;-69
2022/01/08 12:55:40;;;;;;;19.90;12.05;;;4.20;99.90;;;;;;5117027;27;20468;-69
2022/01/08 12:58:16;;;;;;;20.33;11.90;;;4.10;99.90;;;;;;5122300;27;20407;-68
2022/01/08 13:01:02;;;;;;;17.10;12.00;;;4.20;99.90;;;;;;5130315;27;20050;-68
2022/01/08 13:03:44;;;;;;;19.87;11.73;;;4.40;99.90;;;;;;5117769;27;20510;-68
2022/01/08 13:06:10;;;;;;;17.53;10.63;;;;;;;;;;5108543;28;20031;-67
2022/01/08 13:08:36;;;;;;;19.43;11.53;;;4.30;99.90;;;;;;5108735;28;20310;-68
2022/01/08 13:11:05;;;;;;;15.73;9.83;;;4.20;99.90;;;;;;5108532;28;20051;-68
2022/01/08 13:13:40;;;;;;;16.37;9.40;;;4.20;99.90;;;;;;5107399;28;20028;-68
2022/01/08 13:16:22;;;;;;;13.70;9.17;;;4.20;99.90;;;;;;5109505;28;20032;-68
2022/01/08 13:18:53;;;;;;;12.23;8.13;;;4.20;99.90;;;;;;5109104;28;20122;-68
2022/01/08 13:21:19;;;;;;;14.57;9.10;;;4.20;99.90;;;;;;5109722;28;20084;-68
2022/01/08 13:23:52;;;;;;;16.37;8.80;;;4.20;99.90;;;;;;5107498;28;20031;-68